Budapest/Ferihegy

Airport
ICAO code: 
LHBP
Summary
ICAO Region: 
EUR
Territory: 
Location: 
Budapest, Hungary,
Coordinates: 
Aerial View: 
47° 26' 24" N, 19° 15' 42" E
Metar
Observation
LHBP 302130Z 24014KT 9999 -SNRA BKN006 OVC016 02/01 Q1005 TEMPO 3000 SN
Station
Budapest / Ferihegy
Date/Time
2021-11-30 21:30:00
Wind direction
240°
Wind speed
14 kts
Lowest cloud amount
broken clouds
Temperature
2°C
Dew point
1°C
Humidity
93%
QNH
1005 hPa
Weather condition
rain

Description

International airport serving capital of Hungary.

Climatology

Humid Continental climate (Köppen climate classification Dfb) - Variable weather patterns and a large seasonal temperature variance. Summers are often warm and humid with frequent thunderstorms and winters can be very cold with frequent snowfall and persistent snow cover.

Runways

Designator Length Width Surface Rops
13R/31L 3010 45 CON Yes/Yes
13L/31R 3707 45 CON Yes/Yes
Airport map: 
Aerial View: 

Accidents and Serious Incidents at or in the vicinity of LHBP

SKYbrary Partners:

Safety knowledge contributed by: